Ardler, United Kingdom
Current Conditions -  °F | °C
As of 4:20 PM on Saturday 25 Oct 2014 (Local Time) from EGPN Reporting Station
Scattered Clouds Scattered Clouds  
Wind Chill: 54°   Ceiling: Unl
Heat Index: 54°   Visibility: 6mi
Dew Point: 46°   Wind: 28mph
Humidity: 77%   Direction: 240°WSW
Pressure: 29.62"   Gusts: 40mph
Location:  56.59°N, 3.16°W
Report Text: EGPN 251520Z 24024G35KT 9999 FEW018 SCT040 12/08 Q1003
Loading
Personal Weather Stations






























Interactive Weather Map
Tropical Storm Tracking
New forecast layout! Learn more

10-Day Weather Forecast

Advertisements
Track Severe Weather on mobile